sensor_id;sensor_type;location;lat;lon;timestamp;temperature;humidity
45837;DHT22;31548;51.420;-0.040;2022-08-03T00:01:39;20.50;99.90
45837;DHT22;31548;51.420;-0.040;2022-08-03T00:04:07;20.50;99.90
45837;DHT22;31548;51.420;-0.040;2022-08-03T00:06:35;20.50;99.90
45837;DHT22;31548;51.420;-0.040;2022-08-03T00:09:04;20.40;99.90
45837;DHT22;31548;51.420;-0.040;2022-08-03T00:11:32;20.40;99.90
45837;DHT22;31548;51.420;-0.040;2022-08-03T00:14:00;20.40;99.90
45837;DHT22;31548;51.420;-0.040;2022-08-03T00:16:27;20.40;99.90
45837;DHT22;31548;51.420;-0.040;2022-08-03T00:18:54;20.30;99.90
45837;DHT22;31548;51.420;-0.040;2022-08-03T00:21:22;20.20;99.90
45837;DHT22;31548;51.420;-0.040;2022-08-03T00:23:49;20.20;99.90
45837;DHT22;31548;51.420;-0.040;2022-08-03T00:26:19;20.20;99.90
45837;DHT22;31548;51.420;-0.040;2022-08-03T00:28:47;20.10;99.90
45837;DHT22;31548;51.420;-0.040;2022-08-03T00:31:15;20.20;99.90
45837;DHT22;31548;51.420;-0.040;2022-08-03T00:33:53;20.10;99.90
45837;DHT22;31548;51.420;-0.040;2022-08-03T00:36:26;20.10;99.90
45837;DHT22;31548;51.420;-0.040;2022-08-03T00:38:54;20.20;99.90
45837;DHT22;31548;51.420;-0.040;2022-08-03T00:41:22;20.10;99.90
45837;DHT22;31548;51.420;-0.040;2022-08-03T00:43:49;20.10;99.90
45837;DHT22;31548;51.420;-0.040;2022-08-03T00:46:17;19.90;99.90
45837;DHT22;31548;51.420;-0.040;2022-08-03T00:48:51;19.90;99.90
45837;DHT22;31548;51.420;-0.040;2022-08-03T00:51:20;19.80;99.90
45837;DHT22;31548;51.420;-0.040;2022-08-03T00:53:48;19.80;99.90
45837;DHT22;31548;51.420;-0.040;2022-08-03T00:56:16;19.80;99.90
45837;DHT22;31548;51.420;-0.040;2022-08-03T00:58:45;19.80;99.90
45837;DHT22;31548;51.420;-0.040;2022-08-03T01:01:13;19.80;99.90
45837;DHT22;31548;51.420;-0.040;2022-08-03T01:03:41;19.80;99.90
45837;DHT22;31548;51.420;-0.040;2022-08-03T01:06:18;19.70;99.90
45837;DHT22;31548;51.420;-0.040;2022-08-03T01:08:57;19.80;99.90
45837;DHT22;31548;51.420;-0.040;2022-08-03T01:11:31;19.80;99.90
45837;DHT22;31548;51.420;-0.040;2022-08-03T01:17:15;19.70;99.90
45837;DHT22;31548;51.420;-0.040;2022-08-03T01:22:57;19.60;99.90
45837;DHT22;31548;51.420;-0.040;2022-08-03T01:28:21;19.50;99.90
45837;DHT22;31548;51.420;-0.040;2022-08-03T01:30:54;19.50;99.90
45837;DHT22;31548;51.420;-0.040;2022-08-03T01:33:27;19.50;99.90
45837;DHT22;31548;51.420;-0.040;2022-08-03T01:36:02;19.50;99.90
45837;DHT22;31548;51.420;-0.040;2022-08-03T01:38:38;19.40;99.90
45837;DHT22;31548;51.420;-0.040;2022-08-03T01:41:12;19.40;99.90
45837;DHT22;31548;51.420;-0.040;2022-08-03T01:43:41;19.40;99.90
45837;DHT22;31548;51.420;-0.040;2022-08-03T01:46:30;19.30;99.90
45837;DHT22;31548;51.420;-0.040;2022-08-03T01:48:58;19.30;99.90
45837;DHT22;31548;51.420;-0.040;2022-08-03T01:51:37;19.30;99.90
45837;DHT22;31548;51.420;-0.040;2022-08-03T01:54:26;19.30;99.90
45837;DHT22;31548;51.420;-0.040;2022-08-03T01:56:55;19.30;99.90
45837;DHT22;31548;51.420;-0.040;2022-08-03T01:59:25;19.20;99.90
45837;DHT22;31548;51.420;-0.040;2022-08-03T02:01:53;19.20;99.90
45837;DHT22;31548;51.420;-0.040;2022-08-03T02:04:42;19.20;99.90
45837;DHT22;31548;51.420;-0.040;2022-08-03T02:07:11;19.20;99.90
45837;DHT22;31548;51.420;-0.040;2022-08-03T02:09:40;19.20;99.90
45837;DHT22;31548;51.420;-0.040;2022-08-03T02:12:09;19.30;99.90
45837;DHT22;31548;51.420;-0.040;2022-08-03T02:14:38;19.20;99.90
45837;DHT22;31548;51.420;-0.040;2022-08-03T02:17:06;19.20;99.90
45837;DHT22;31548;51.420;-0.040;2022-08-03T02:19:36;19.30;99.90
45837;DHT22;31548;51.420;-0.040;2022-08-03T02:22:04;19.30;99.90
45837;DHT22;31548;51.420;-0.040;2022-08-03T02:24:34;19.30;99.90
45837;DHT22;31548;51.420;-0.040;2022-08-03T02:27:05;19.30;99.90
45837;DHT22;31548;51.420;-0.040;2022-08-03T02:29:35;19.30;99.90
45837;DHT22;31548;51.420;-0.040;2022-08-03T02:32:13;19.30;99.90
45837;DHT22;31548;51.420;-0.040;2022-08-03T02:34:46;19.40;99.90
45837;DHT22;31548;51.420;-0.040;2022-08-03T02:37:17;19.40;99.90
45837;DHT22;31548;51.420;-0.040;2022-08-03T02:39:46;19.40;99.90
45837;DHT22;31548;51.420;-0.040;2022-08-03T02:42:16;19.30;99.90
45837;DHT22;31548;51.420;-0.040;2022-08-03T02:44:47;19.30;99.90
45837;DHT22;31548;51.420;-0.040;2022-08-03T02:47:16;19.40;99.90
45837;DHT22;31548;51.420;-0.040;2022-08-03T02:49:48;19.30;99.90
45837;DHT22;31548;51.420;-0.040;2022-08-03T02:52:20;19.40;99.90
45837;DHT22;31548;51.420;-0.040;2022-08-03T02:54:52;19.40;99.90
45837;DHT22;31548;51.420;-0.040;2022-08-03T02:57:22;19.40;99.90
45837;DHT22;31548;51.420;-0.040;2022-08-03T02:59:51;19.50;99.90
45837;DHT22;31548;51.420;-0.040;2022-08-03T03:02:19;19.50;99.90
45837;DHT22;31548;51.420;-0.040;2022-08-03T03:04:50;19.60;99.90
45837;DHT22;31548;51.420;-0.040;2022-08-03T03:07:39;19.50;99.90
45837;DHT22;31548;51.420;-0.040;2022-08-03T03:10:22;19.50;99.90
45837;DHT22;31548;51.420;-0.040;2022-08-03T03:12:54;19.50;99.90
45837;DHT22;31548;51.420;-0.040;2022-08-03T03:15:24;19.60;99.90
45837;DHT22;31548;51.420;-0.040;2022-08-03T03:17:52;19.60;99.90
45837;DHT22;31548;51.420;-0.040;2022-08-03T03:20:21;19.60;99.90
45837;DHT22;31548;51.420;-0.040;2022-08-03T03:22:58;19.60;99.90
45837;DHT22;31548;51.420;-0.040;2022-08-03T03:25:31;19.60;99.90
45837;DHT22;31548;51.420;-0.040;2022-08-03T03:27:59;19.60;99.90
45837;DHT22;31548;51.420;-0.040;2022-08-03T03:30:28;19.60;99.90
45837;DHT22;31548;51.420;-0.040;2022-08-03T03:32:57;19.70;99.90
45837;DHT22;31548;51.420;-0.040;2022-08-03T03:35:26;19.60;99.90
45837;DHT22;31548;51.420;-0.040;2022-08-03T03:37:54;19.60;99.90
45837;DHT22;31548;51.420;-0.040;2022-08-03T03:40:21;19.60;99.90
45837;DHT22;31548;51.420;-0.040;2022-08-03T03:42:49;19.60;99.90
45837;DHT22;31548;51.420;-0.040;2022-08-03T03:45:17;19.60;99.90
45837;DHT22;31548;51.420;-0.040;2022-08-03T03:47:44;19.60;99.90
45837;DHT22;31548;51.420;-0.040;2022-08-03T03:50:12;19.60;99.90
45837;DHT22;31548;51.420;-0.040;2022-08-03T03:52:41;19.70;99.90
45837;DHT22;31548;51.420;-0.040;2022-08-03T03:55:08;19.70;99.90
45837;DHT22;31548;51.420;-0.040;2022-08-03T03:57:36;19.70;99.90
45837;DHT22;31548;51.420;-0.040;2022-08-03T04:00:04;19.70;99.90
45837;DHT22;31548;51.420;-0.040;2022-08-03T04:02:32;19.70;99.90
45837;DHT22;31548;51.420;-0.040;2022-08-03T04:04:59;19.70;99.90
45837;DHT22;31548;51.420;-0.040;2022-08-03T04:07:58;19.70;99.90
45837;DHT22;31548;51.420;-0.040;2022-08-03T04:13:34;19.70;99.90
45837;DHT22;31548;51.420;-0.040;2022-08-03T04:16:03;19.70;99.90
45837;DHT22;31548;51.420;-0.040;2022-08-03T04:18:33;19.70;99.90
45837;DHT22;31548;51.420;-0.040;2022-08-03T04:21:04;19.60;99.90
45837;DHT22;31548;51.420;-0.040;2022-08-03T04:23:35;19.70;99.90
45837;DHT22;31548;51.420;-0.040;2022-08-03T04:26:06;19.70;99.90
45837;DHT22;31548;51.420;-0.040;2022-08-03T04:28:37;19.70;99.90
45837;DHT22;31548;51.420;-0.040;2022-08-03T04:31:06;19.80;99.90
45837;DHT22;31548;51.420;-0.040;2022-08-03T04:33:36;19.70;99.90
45837;DHT22;31548;51.420;-0.040;2022-08-03T04:36:07;19.70;99.90
45837;DHT22;31548;51.420;-0.040;2022-08-03T04:38:43;19.60;99.90
45837;DHT22;31548;51.420;-0.040;2022-08-03T04:41:15;19.70;99.90
45837;DHT22;31548;51.420;-0.040;2022-08-03T04:43:43;19.70;99.90
45837;DHT22;31548;51.420;-0.040;2022-08-03T04:46:11;19.70;99.90
45837;DHT22;31548;51.420;-0.040;2022-08-03T04:48:39;19.70;99.90
45837;DHT22;31548;51.420;-0.040;2022-08-03T04:51:11;19.70;99.90
45837;DHT22;31548;51.420;-0.040;2022-08-03T04:53:39;19.70;99.90
45837;DHT22;31548;51.420;-0.040;2022-08-03T04:56:07;19.70;99.90
45837;DHT22;31548;51.420;-0.040;2022-08-03T04:58:34;19.70;99.90
45837;DHT22;31548;51.420;-0.040;2022-08-03T05:01:02;19.70;99.90
45837;DHT22;31548;51.420;-0.040;2022-08-03T05:03:29;19.70;99.90
45837;DHT22;31548;51.420;-0.040;2022-08-03T05:05:57;19.70;99.90
45837;DHT22;31548;51.420;-0.040;2022-08-03T05:08:37;19.70;99.90
45837;DHT22;31548;51.420;-0.040;2022-08-03T05:11:14;19.70;99.90
45837;DHT22;31548;51.420;-0.040;2022-08-03T05:13:45;19.70;99.90
45837;DHT22;31548;51.420;-0.040;2022-08-03T05:16:13;19.80;99.90
45837;DHT22;31548;51.420;-0.040;2022-08-03T05:18:41;19.70;99.90
45837;DHT22;31548;51.420;-0.040;2022-08-03T05:21:09;19.70;99.90
45837;DHT22;31548;51.420;-0.040;2022-08-03T05:23:36;19.80;99.90
45837;DHT22;31548;51.420;-0.040;2022-08-03T05:26:04;19.80;99.90
45837;DHT22;31548;51.420;-0.040;2022-08-03T05:28:31;19.80;99.90
45837;DHT22;31548;51.420;-0.040;2022-08-03T05:30:58;19.80;99.90
45837;DHT22;31548;51.420;-0.040;2022-08-03T05:33:25;19.90;99.90
45837;DHT22;31548;51.420;-0.040;2022-08-03T05:35:53;19.90;99.90
45837;DHT22;31548;51.420;-0.040;2022-08-03T05:38:30;19.90;99.90
45837;DHT22;31548;51.420;-0.040;2022-08-03T05:41:04;19.90;99.90
45837;DHT22;31548;51.420;-0.040;2022-08-03T05:43:46;20.00;99.90
45837;DHT22;31548;51.420;-0.040;2022-08-03T05:46:14;20.00;99.90
45837;DHT22;31548;51.420;-0.040;2022-08-03T05:48:42;19.90;99.90
45837;DHT22;31548;51.420;-0.040;2022-08-03T05:51:09;20.00;99.90
45837;DHT22;31548;51.420;-0.040;2022-08-03T05:53:41;20.10;99.90
45837;DHT22;31548;51.420;-0.040;2022-08-03T05:56:09;20.10;99.90
45837;DHT22;31548;51.420;-0.040;2022-08-03T05:58:50;20.00;99.90
45837;DHT22;31548;51.420;-0.040;2022-08-03T06:01:19;19.90;99.90
45837;DHT22;31548;51.420;-0.040;2022-08-03T06:03:49;20.00;99.90
45837;DHT22;31548;51.420;-0.040;2022-08-03T06:06:18;20.00;99.90
45837;DHT22;31548;51.420;-0.040;2022-08-03T06:08:45;20.00;99.90
45837;DHT22;31548;51.420;-0.040;2022-08-03T06:11:15;20.00;99.90
45837;DHT22;31548;51.420;-0.040;2022-08-03T06:13:43;20.00;99.90
45837;DHT22;31548;51.420;-0.040;2022-08-03T06:16:10;20.00;99.90
45837;DHT22;31548;51.420;-0.040;2022-08-03T06:18:38;20.10;99.90
45837;DHT22;31548;51.420;-0.040;2022-08-03T06:21:07;20.20;99.90
45837;DHT22;31548;51.420;-0.040;2022-08-03T06:23:43;20.20;99.90
45837;DHT22;31548;51.420;-0.040;2022-08-03T06:26:19;20.30;99.90
45837;DHT22;31548;51.420;-0.040;2022-08-03T06:28:47;20.40;99.90
45837;DHT22;31548;51.420;-0.040;2022-08-03T06:31:24;20.40;99.90
45837;DHT22;31548;51.420;-0.040;2022-08-03T06:34:01;20.50;99.90
45837;DHT22;31548;51.420;-0.040;2022-08-03T06:36:48;20.40;99.90
45837;DHT22;31548;51.420;-0.040;2022-08-03T06:39:19;20.40;99.90
45837;DHT22;31548;51.420;-0.040;2022-08-03T06:41:50;20.50;99.90
45837;DHT22;31548;51.420;-0.040;2022-08-03T06:44:17;20.50;99.90
45837;DHT22;31548;51.420;-0.040;2022-08-03T06:46:44;20.60;99.90
45837;DHT22;31548;51.420;-0.040;2022-08-03T06:49:12;20.70;99.90
45837;DHT22;31548;51.420;-0.040;2022-08-03T06:51:39;20.70;99.90
45837;DHT22;31548;51.420;-0.040;2022-08-03T06:54:26;20.70;99.90
45837;DHT22;31548;51.420;-0.040;2022-08-03T06:56:54;20.70;99.90
45837;DHT22;31548;51.420;-0.040;2022-08-03T06:59:21;20.70;99.90
45837;DHT22;31548;51.420;-0.040;2022-08-03T07:02:08;20.80;99.90
45837;DHT22;31548;51.420;-0.040;2022-08-03T07:04:36;20.80;99.90
45837;DHT22;31548;51.420;-0.040;2022-08-03T07:07:04;20.80;99.90
45837;DHT22;31548;51.420;-0.040;2022-08-03T07:09:31;20.80;99.90
45837;DHT22;31548;51.420;-0.040;2022-08-03T07:11:58;20.90;99.90
45837;DHT22;31548;51.420;-0.040;2022-08-03T07:14:28;21.00;99.90
45837;DHT22;31548;51.420;-0.040;2022-08-03T07:16:57;21.10;99.90
45837;DHT22;31548;51.420;-0.040;2022-08-03T07:19:24;21.10;99.90
45837;DHT22;31548;51.420;-0.040;2022-08-03T07:21:51;21.20;99.90
45837;DHT22;31548;51.420;-0.040;2022-08-03T07:24:19;21.20;99.90
45837;DHT22;31548;51.420;-0.040;2022-08-03T07:26:46;21.20;99.90
45837;DHT22;31548;51.420;-0.040;2022-08-03T07:29:14;21.20;99.90
45837;DHT22;31548;51.420;-0.040;2022-08-03T07:31:41;21.20;99.90
45837;DHT22;31548;51.420;-0.040;2022-08-03T07:34:08;21.30;99.90
45837;DHT22;31548;51.420;-0.040;2022-08-03T07:36:36;21.40;99.90
45837;DHT22;31548;51.420;-0.040;2022-08-03T07:39:03;21.40;99.90
45837;DHT22;31548;51.420;-0.040;2022-08-03T07:41:44;21.30;99.90
45837;DHT22;31548;51.420;-0.040;2022-08-03T07:44:12;21.40;99.90
45837;DHT22;31548;51.420;-0.040;2022-08-03T07:46:39;21.50;99.90
45837;DHT22;31548;51.420;-0.040;2022-08-03T07:49:06;21.50;99.90
45837;DHT22;31548;51.420;-0.040;2022-08-03T07:51:34;21.60;99.90
45837;DHT22;31548;51.420;-0.040;2022-08-03T07:54:01;21.40;99.90
45837;DHT22;31548;51.420;-0.040;2022-08-03T07:56:29;21.50;99.90
45837;DHT22;31548;51.420;-0.040;2022-08-03T07:58:56;21.40;99.90
45837;DHT22;31548;51.420;-0.040;2022-08-03T08:01:24;21.50;99.90
45837;DHT22;31548;51.420;-0.040;2022-08-03T08:03:51;21.70;99.90
45837;DHT22;31548;51.420;-0.040;2022-08-03T08:06:20;21.60;99.90
45837;DHT22;31548;51.420;-0.040;2022-08-03T08:08:47;21.60;99.90
45837;DHT22;31548;51.420;-0.040;2022-08-03T08:11:14;21.50;99.90
45837;DHT22;31548;51.420;-0.040;2022-08-03T08:13:42;21.50;99.90
45837;DHT22;31548;51.420;-0.040;2022-08-03T08:16:09;21.30;99.90
45837;DHT22;31548;51.420;-0.040;2022-08-03T08:18:36;21.40;99.90
45837;DHT22;31548;51.420;-0.040;2022-08-03T08:21:03;21.40;99.90
45837;DHT22;31548;51.420;-0.040;2022-08-03T08:23:31;21.50;99.90
45837;DHT22;31548;51.420;-0.040;2022-08-03T08:26:11;21.50;99.90
45837;DHT22;31548;51.420;-0.040;2022-08-03T08:28:38;21.70;99.90
45837;DHT22;31548;51.420;-0.040;2022-08-03T08:31:05;21.70;99.90
45837;DHT22;31548;51.420;-0.040;2022-08-03T08:33:33;21.80;99.90
45837;DHT22;31548;51.420;-0.040;2022-08-03T08:36:22;21.90;99.90
45837;DHT22;31548;51.420;-0.040;2022-08-03T08:38:50;22.00;99.90
45837;DHT22;31548;51.420;-0.040;2022-08-03T08:41:17;22.10;99.90
45837;DHT22;31548;51.420;-0.040;2022-08-03T08:43:45;22.10;99.90
45837;DHT22;31548;51.420;-0.040;2022-08-03T08:46:13;22.10;99.90
45837;DHT22;31548;51.420;-0.040;2022-08-03T08:48:51;22.20;99.90
45837;DHT22;31548;51.420;-0.040;2022-08-03T08:51:20;22.30;99.90
45837;DHT22;31548;51.420;-0.040;2022-08-03T08:53:52;22.50;99.90
45837;DHT22;31548;51.420;-0.040;2022-08-03T08:56:22;22.60;99.90
45837;DHT22;31548;51.420;-0.040;2022-08-03T08:58:56;22.70;99.90
45837;DHT22;31548;51.420;-0.040;2022-08-03T09:01:24;22.60;99.90
45837;DHT22;31548;51.420;-0.040;2022-08-03T09:03:51;22.50;99.90
45837;DHT22;31548;51.420;-0.040;2022-08-03T09:06:21;22.50;99.90
45837;DHT22;31548;51.420;-0.040;2022-08-03T09:08:48;22.70;99.90
45837;DHT22;31548;51.420;-0.040;2022-08-03T09:11:20;22.70;99.90
45837;DHT22;31548;51.420;-0.040;2022-08-03T09:14:08;22.70;99.90
45837;DHT22;31548;51.420;-0.040;2022-08-03T09:16:57;22.60;99.90
45837;DHT22;31548;51.420;-0.040;2022-08-03T09:19:32;22.70;99.90
45837;DHT22;31548;51.420;-0.040;2022-08-03T09:22:26;22.90;99.90
45837;DHT22;31548;51.420;-0.040;2022-08-03T09:25:00;23.10;99.90
45837;DHT22;31548;51.420;-0.040;2022-08-03T09:27:49;23.00;99.90
45837;DHT22;31548;51.420;-0.040;2022-08-03T09:30:17;23.10;99.90
45837;DHT22;31548;51.420;-0.040;2022-08-03T09:33:05;23.20;99.90
45837;DHT22;31548;51.420;-0.040;2022-08-03T09:35:46;23.00;99.90
45837;DHT22;31548;51.420;-0.040;2022-08-03T09:38:22;23.20;99.90
45837;DHT22;31548;51.420;-0.040;2022-08-03T09:40:54;23.20;99.90
45837;DHT22;31548;51.420;-0.040;2022-08-03T09:43:26;23.30;99.90
45837;DHT22;31548;51.420;-0.040;2022-08-03T09:46:04;23.30;99.90
45837;DHT22;31548;51.420;-0.040;2022-08-03T09:48:33;23.40;99.90
45837;DHT22;31548;51.420;-0.040;2022-08-03T09:51:03;23.40;99.90
45837;DHT22;31548;51.420;-0.040;2022-08-03T09:53:50;23.30;99.90
45837;DHT22;31548;51.420;-0.040;2022-08-03T09:56:45;23.40;99.90
45837;DHT22;31548;51.420;-0.040;2022-08-03T09:59:25;23.30;99.90
45837;DHT22;31548;51.420;-0.040;2022-08-03T10:01:53;23.40;99.90
45837;DHT22;31548;51.420;-0.040;2022-08-03T10:04:21;23.60;99.90
45837;DHT22;31548;51.420;-0.040;2022-08-03T10:07:05;23.70;99.90
45837;DHT22;31548;51.420;-0.040;2022-08-03T10:09:32;23.60;99.90
45837;DHT22;31548;51.420;-0.040;2022-08-03T10:12:09;23.80;99.90
45837;DHT22;31548;51.420;-0.040;2022-08-03T10:14:38;23.80;99.90
45837;DHT22;31548;51.420;-0.040;2022-08-03T10:17:06;23.90;99.90
45837;DHT22;31548;51.420;-0.040;2022-08-03T10:19:33;24.00;99.90
45837;DHT22;31548;51.420;-0.040;2022-08-03T10:22:03;23.90;99.90
45837;DHT22;31548;51.420;-0.040;2022-08-03T10:24:34;24.20;99.90
45837;DHT22;31548;51.420;-0.040;2022-08-03T10:27:06;24.30;99.90
45837;DHT22;31548;51.420;-0.040;2022-08-03T10:29:37;24.40;99.90
45837;DHT22;31548;51.420;-0.040;2022-08-03T10:32:12;24.40;99.90
45837;DHT22;31548;51.420;-0.040;2022-08-03T10:34:41;24.40;99.90
45837;DHT22;31548;51.420;-0.040;2022-08-03T10:37:11;24.50;99.90
45837;DHT22;31548;51.420;-0.040;2022-08-03T10:39:43;24.60;99.90
45837;DHT22;31548;51.420;-0.040;2022-08-03T10:42:23;24.70;99.90
45837;DHT22;31548;51.420;-0.040;2022-08-03T10:45:08;24.70;99.90
45837;DHT22;31548;51.420;-0.040;2022-08-03T10:47:39;24.80;99.90
45837;DHT22;31548;51.420;-0.040;2022-08-03T10:50:07;24.90;99.90
45837;DHT22;31548;51.420;-0.040;2022-08-03T10:52:35;25.00;99.90
45837;DHT22;31548;51.420;-0.040;2022-08-03T10:55:41;25.10;99.90
45837;DHT22;31548;51.420;-0.040;2022-08-03T11:01:51;25.60;99.90
45837;DHT22;31548;51.420;-0.040;2022-08-03T11:04:25;26.00;99.90
45837;DHT22;31548;51.420;-0.040;2022-08-03T11:09:52;26.00;99.90
45837;DHT22;31548;51.420;-0.040;2022-08-03T11:12:31;25.90;99.90
45837;DHT22;31548;51.420;-0.040;2022-08-03T11:15:05;25.80;99.90
45837;DHT22;31548;51.420;-0.040;2022-08-03T11:17:33;26.00;99.90
45837;DHT22;31548;51.420;-0.040;2022-08-03T11:20:12;26.00;99.90
45837;DHT22;31548;51.420;-0.040;2022-08-03T11:22:58;25.90;99.90
45837;DHT22;31548;51.420;-0.040;2022-08-03T11:25:27;26.10;99.90
45837;DHT22;31548;51.420;-0.040;2022-08-03T11:28:27;26.00;99.90
45837;DHT22;31548;51.420;-0.040;2022-08-03T11:30:56;26.20;99.90
45837;DHT22;31548;51.420;-0.040;2022-08-03T11:34:11;26.60;99.90
45837;DHT22;31548;51.420;-0.040;2022-08-03T11:39:45;26.60;99.90
45837;DHT22;31548;51.420;-0.040;2022-08-03T11:45:06;25.90;99.90
45837;DHT22;31548;51.420;-0.040;2022-08-03T11:47:36;26.00;99.90
45837;DHT22;31548;51.420;-0.040;2022-08-03T11:50:17;26.00;99.90
45837;DHT22;31548;51.420;-0.040;2022-08-03T11:52:46;26.10;99.90
45837;DHT22;31548;51.420;-0.040;2022-08-03T11:55:16;26.10;99.90
45837;DHT22;31548;51.420;-0.040;2022-08-03T11:57:45;26.20;99.90
45837;DHT22;31548;51.420;-0.040;2022-08-03T12:00:33;26.30;99.90
45837;DHT22;31548;51.420;-0.040;2022-08-03T12:03:07;26.00;99.90
45837;DHT22;31548;51.420;-0.040;2022-08-03T12:08:09;26.50;99.90
45837;DHT22;31548;51.420;-0.040;2022-08-03T12:10:38;26.80;99.90
45837;DHT22;31548;51.420;-0.040;2022-08-03T12:13:06;26.90;99.90
45837;DHT22;31548;51.420;-0.040;2022-08-03T12:15:56;27.10;99.90
45837;DHT22;31548;51.420;-0.040;2022-08-03T12:18:25;27.10;99.90
45837;DHT22;31548;51.420;-0.040;2022-08-03T12:21:06;27.00;99.90
45837;DHT22;31548;51.420;-0.040;2022-08-03T12:23:34;27.10;99.90
45837;DHT22;31548;51.420;-0.040;2022-08-03T12:26:07;27.00;99.90
45837;DHT22;31548;51.420;-0.040;2022-08-03T12:28:35;26.80;99.90
45837;DHT22;31548;51.420;-0.040;2022-08-03T12:31:08;26.70;99.90
45837;DHT22;31548;51.420;-0.040;2022-08-03T12:36:25;26.80;99.90
45837;DHT22;31548;51.420;-0.040;2022-08-03T12:39:00;26.90;99.90
45837;DHT22;31548;51.420;-0.040;2022-08-03T12:41:36;26.80;99.90
45837;DHT22;31548;51.420;-0.040;2022-08-03T12:44:05;26.80;99.90
45837;DHT22;31548;51.420;-0.040;2022-08-03T12:46:41;27.10;99.90
45837;DHT22;31548;51.420;-0.040;2022-08-03T12:49:15;27.40;99.70
45837;DHT22;31548;51.420;-0.040;2022-08-03T12:54:23;27.90;99.60
45837;DHT22;31548;51.420;-0.040;2022-08-03T12:57:00;28.20;99.00
45837;DHT22;31548;51.420;-0.040;2022-08-03T12:59:30;28.40;98.90
45837;DHT22;31548;51.420;-0.040;2022-08-03T13:02:04;28.40;98.20
45837;DHT22;31548;51.420;-0.040;2022-08-03T13:04:35;28.40;98.40
45837;DHT22;31548;51.420;-0.040;2022-08-03T13:07:07;28.60;98.00
45837;DHT22;31548;51.420;-0.040;2022-08-03T13:14:37;28.80;98.90
45837;DHT22;31548;51.420;-0.040;2022-08-03T13:17:05;29.00;97.30
45837;DHT22;31548;51.420;-0.040;2022-08-03T13:19:33;28.50;97.40
45837;DHT22;31548;51.420;-0.040;2022-08-03T13:22:09;28.10;98.40
45837;DHT22;31548;51.420;-0.040;2022-08-03T13:24:36;28.20;98.70
45837;DHT22;31548;51.420;-0.040;2022-08-03T13:27:04;28.00;98.20
45837;DHT22;31548;51.420;-0.040;2022-08-03T13:29:54;28.40;97.80
45837;DHT22;31548;51.420;-0.040;2022-08-03T13:32:22;28.60;97.30
45837;DHT22;31548;51.420;-0.040;2022-08-03T13:34:49;28.90;97.30
45837;DHT22;31548;51.420;-0.040;2022-08-03T13:37:16;28.70;97.10
45837;DHT22;31548;51.420;-0.040;2022-08-03T13:39:43;28.60;97.20
45837;DHT22;31548;51.420;-0.040;2022-08-03T13:42:30;28.80;97.30
45837;DHT22;31548;51.420;-0.040;2022-08-03T13:44:59;29.10;97.50
45837;DHT22;31548;51.420;-0.040;2022-08-03T13:47:27;29.10;97.10
45837;DHT22;31548;51.420;-0.040;2022-08-03T13:49:54;29.20;97.50
45837;DHT22;31548;51.420;-0.040;2022-08-03T13:52:29;29.40;96.30
45837;DHT22;31548;51.420;-0.040;2022-08-03T13:54:57;29.60;96.40
45837;DHT22;31548;51.420;-0.040;2022-08-03T13:57:24;29.90;95.90
45837;DHT22;31548;51.420;-0.040;2022-08-03T14:00:12;29.90;95.50
45837;DHT22;31548;51.420;-0.040;2022-08-03T14:02:52;29.90;95.30
45837;DHT22;31548;51.420;-0.040;2022-08-03T14:05:29;29.90;95.20
45837;DHT22;31548;51.420;-0.040;2022-08-03T14:07:59;30.30;96.00
45837;DHT22;31548;51.420;-0.040;2022-08-03T14:10:39;30.00;96.00
45837;DHT22;31548;51.420;-0.040;2022-08-03T14:13:06;29.60;96.10
45837;DHT22;31548;51.420;-0.040;2022-08-03T14:15:34;29.80;95.50
45837;DHT22;31548;51.420;-0.040;2022-08-03T14:18:08;29.90;95.30
45837;DHT22;31548;51.420;-0.040;2022-08-03T14:20:41;29.90;95.30
45837;DHT22;31548;51.420;-0.040;2022-08-03T14:23:16;30.10;94.80
45837;DHT22;31548;51.420;-0.040;2022-08-03T14:25:43;30.00;94.70
45837;DHT22;31548;51.420;-0.040;2022-08-03T14:28:19;29.90;95.20
45837;DHT22;31548;51.420;-0.040;2022-08-03T14:30:49;30.20;94.70
45837;DHT22;31548;51.420;-0.040;2022-08-03T14:33:16;30.60;94.30
45837;DHT22;31548;51.420;-0.040;2022-08-03T14:35:44;30.30;95.10
45837;DHT22;31548;51.420;-0.040;2022-08-03T14:38:11;30.00;94.40
45837;DHT22;31548;51.420;-0.040;2022-08-03T14:40:38;30.10;94.40
45837;DHT22;31548;51.420;-0.040;2022-08-03T14:43:05;29.70;94.70
45837;DHT22;31548;51.420;-0.040;2022-08-03T14:45:33;29.70;95.00
45837;DHT22;31548;51.420;-0.040;2022-08-03T14:48:02;30.10;94.30
45837;DHT22;31548;51.420;-0.040;2022-08-03T14:50:50;29.70;94.40
45837;DHT22;31548;51.420;-0.040;2022-08-03T14:53:19;29.90;94.60
45837;DHT22;31548;51.420;-0.040;2022-08-03T14:55:47;29.70;94.70
45837;DHT22;31548;51.420;-0.040;2022-08-03T14:58:22;29.20;94.60
45837;DHT22;31548;51.420;-0.040;2022-08-03T15:00:52;29.60;95.40
45837;DHT22;31548;51.420;-0.040;2022-08-03T15:03:21;30.00;94.70
45837;DHT22;31548;51.420;-0.040;2022-08-03T15:05:53;29.90;94.80
45837;DHT22;31548;51.420;-0.040;2022-08-03T15:08:22;30.70;95.00
45837;DHT22;31548;51.420;-0.040;2022-08-03T15:10:49;30.50;94.00
45837;DHT22;31548;51.420;-0.040;2022-08-03T15:13:17;30.60;94.90
45837;DHT22;31548;51.420;-0.040;2022-08-03T15:15:46;30.70;94.00
45837;DHT22;31548;51.420;-0.040;2022-08-03T15:18:14;30.70;94.10
45837;DHT22;31548;51.420;-0.040;2022-08-03T15:20:41;31.40;93.60
45837;DHT22;31548;51.420;-0.040;2022-08-03T15:23:13;31.30;93.80
45837;DHT22;31548;51.420;-0.040;2022-08-03T15:25:43;30.80;93.70
45837;DHT22;31548;51.420;-0.040;2022-08-03T15:28:31;30.50;93.80
45837;DHT22;31548;51.420;-0.040;2022-08-03T15:30:58;30.70;93.80
45837;DHT22;31548;51.420;-0.040;2022-08-03T15:33:26;30.40;94.90
45837;DHT22;31548;51.420;-0.040;2022-08-03T15:35:53;29.80;94.40
45837;DHT22;31548;51.420;-0.040;2022-08-03T15:38:21;30.00;95.60
45837;DHT22;31548;51.420;-0.040;2022-08-03T15:40:53;29.80;95.00
45837;DHT22;31548;51.420;-0.040;2022-08-03T15:43:22;29.30;95.40
45837;DHT22;31548;51.420;-0.040;2022-08-03T15:45:49;29.20;95.30
45837;DHT22;31548;51.420;-0.040;2022-08-03T15:48:37;29.30;95.20
45837;DHT22;31548;51.420;-0.040;2022-08-03T15:51:04;29.10;95.40
45837;DHT22;31548;51.420;-0.040;2022-08-03T15:53:32;30.00;95.10
45837;DHT22;31548;51.420;-0.040;2022-08-03T15:56:00;30.40;94.50
45837;DHT22;31548;51.420;-0.040;2022-08-03T15:58:32;31.00;94.00
45837;DHT22;31548;51.420;-0.040;2022-08-03T16:01:20;31.30;93.40
45837;DHT22;31548;51.420;-0.040;2022-08-03T16:03:47;31.50;94.00
45837;DHT22;31548;51.420;-0.040;2022-08-03T16:06:14;31.60;93.30
45837;DHT22;31548;51.420;-0.040;2022-08-03T16:08:42;31.50;93.50
45837;DHT22;31548;51.420;-0.040;2022-08-03T16:11:10;31.80;93.10
45837;DHT22;31548;51.420;-0.040;2022-08-03T16:13:37;32.30;93.10
45837;DHT22;31548;51.420;-0.040;2022-08-03T16:16:24;31.90;92.50
45837;DHT22;31548;51.420;-0.040;2022-08-03T16:18:51;31.20;93.10
45837;DHT22;31548;51.420;-0.040;2022-08-03T16:21:19;30.50;93.60